• Join FlightAware (Why Join?)
  • Login
  • US Flag 
05:37PM EDT


 

Airport Tracker/Info


-or-


 

Live Flight TrackerFlight Track Log ✈ UAL906 ✈ 23-Apr-2013 ✈ KORD - EDDM / MUC

Flight Track Log - Related Links

Times and Time Zones

All times are in EDT time to prevent confusion due to time zone crossing. See the UAL906 flight status page for this flight to view local times or setup timezone preferences in your user account.

Time Position Orientation Groundspeed Altitude Reporting Facility
EDT Latitude Longitude Course Direction KTS MPH feet Rate Location/Type
07:09PM 41.9960 -87.9390 318° Northwest 164 189 1,500  Level FlightAware
07:10PM 42.0150 -87.9610 319° Northwest 203 234 2,200 1,980 Climbing FlightAware
07:10PM 42.0400 -87.9870 322° Northwest 218 251 3,500 2,400 Climbing FlightAware
07:11PM 42.0620 -88.0080 325° Northwest 242 278 4,400 2,160 Climbing FlightAware
07:11PM 42.0940 -88.0240 340° North 260 299 5,500 2,280 Climbing FlightAware
07:12PM 42.1290 -88.0350 347° North 281 323 6,700 2,580 Climbing FlightAware
07:12PM 42.1660 -88.0330 North 290 334 7,900 2,580 Climbing FlightAware
07:12PM 42.2080 -88.0290 North 304 350 9,100 2,400 Climbing FlightAware
07:13PM 42.2640 -88.0230 North 318 366 10,700 1,680 Climbing FlightAware
07:14PM 42.3350 -88.0150 North 369 425 11,500 1,440 Climbing FlightAware
07:15PM 42.4060 -88.0070 North 396 456 12,800 2,100 Climbing FlightAware
07:15PM 42.4820 -87.9830 13° North 423 487 14,300 2,220 Climbing FlightAware
07:16PM 42.5570 -87.9180 33° Northeast 442 509 16,000 2,160 Climbing FlightAware
07:17PM 42.6220 -87.8490 38° Northeast 453 521 17,400 2,160 Climbing FlightAware
07:17PM 42.6910 -87.7770 37° Northeast 462 532 18,900 2,100 Climbing FlightAware
07:18PM 42.7670 -87.6970 38° Northeast 470 541 20,400 1,200 Climbing FlightAware
07:19PM 42.8300 -87.6310 38° Northeast 472 543 20,600 1,620 Climbing FlightAware
07:19PM 42.9120 -87.5420 38° Northeast 492 566 22,700 2,220 Climbing FlightAware
07:20PM 42.9880 -87.4590 39° Northeast 503 579 23,800 1,080 Climbing FlightAware
07:21PM 43.0730 -87.3660 39° Northeast 509 586 24,400 1,440 Climbing FlightAware
07:22PM 43.1720 -87.2560 39° Northeast 521 600 26,200 1,800 Climbing FlightAware
07:22PM 43.2490 -87.1710 39° Northeast 529 609 27,100 1,500 Climbing FlightAware
07:23PM 43.3320 -87.0790 39° Northeast 530 610 28,400 1,800 Climbing FlightAware
07:24PM 43.4110 -86.9910 39° Northeast 527 606 29,700 1,800 Climbing FlightAware
07:24PM 43.4760 -86.9180 39° Northeast 524 603 30,700 1,500 Climbing FlightAware
07:25PM 43.5690 -86.8150 39° Northeast 523 602 31,900 1,380 Climbing FlightAware
07:26PM 43.6440 -86.7300 39° Northeast 523 602 32,800 720 Climbing FlightAware
07:27PM 43.7280 -86.6360 39° Northeast 523 602 33,000 120 Climbing FlightAware
07:27PM 43.8010 -86.5530 39° Northeast 520 598 33,000  Level FlightAware
07:28PM 43.8800 -86.4630 39° Northeast 519 597 33,000  Level FlightAware
07:29PM 43.9400 -86.3950 39° Northeast 519 597 33,000  Level FlightAware
07:30PM 44.0470 -86.2720 40° Northeast 521 600 33,000  Level FlightAware
07:30PM 44.1210 -86.1870 39° Northeast 522 601 33,000  Level FlightAware
07:31PM 44.1920 -86.1050 40° Northeast 522 601 33,000  Level FlightAware
07:32PM 44.2740 -86.0110 39° Northeast 522 601 33,000  Level FlightAware
07:32PM 44.3520 -85.9200 40° Northeast 523 602 33,000  Level FlightAware
07:33PM 44.4330 -85.8250 40° Northeast 525 604 33,000  Level FlightAware
07:34PM 44.5110 -85.7340 40° Northeast 525 604 33,000  Level FlightAware
07:34PM 44.5830 -85.6500 40° Northeast 526 605 33,000  Level FlightAware
07:35PM 44.6660 -85.5520 40° Northeast 526 605 33,000  Level FlightAware
07:36PM 44.7390 -85.4610 42° Northeast 529 609 33,000  Level FlightAware
07:37PM 44.8230 -85.3540 42° Northeast 530 610 33,000  Level FlightAware
07:37PM 44.8850 -85.2750 42° Northeast 531 611 33,000  Level FlightAware
07:38PM 44.9750 -85.1600 42° Northeast 531 611 33,000  Level FlightAware
07:39PM 45.0390 -85.0790 42° Northeast 531 611 33,000  Level FlightAware
07:39PM 45.1230 -84.9710 42° Northeast 531 611 33,000  Level FlightAware
07:40PM 45.1910 -84.8830 42° Northeast 532 612 33,000  Level FlightAware
07:41PM 45.2770 -84.7720 42° Northeast 531 611 33,000  Level FlightAware
07:41PM 45.3610 -84.6630 42° Northeast 532 612 33,000  Level FlightAware
07:42PM 45.4320 -84.5710 42° Northeast 532 612 33,000  Level FlightAware
07:43PM 45.5050 -84.4750 43° Northeast 532 612 33,000  Level FlightAware
07:44PM 45.5860 -84.3690 42° Northeast 533 613 33,000  Level FlightAware
07:44PM 45.6580 -84.2750 42° Northeast 534 615 33,000  Level FlightAware
07:45PM 45.7380 -84.1690 43° Northeast 533 613 33,000  Level FlightAware
07:46PM 45.8110 -84.0710 43° Northeast 532 612 33,000  Level FlightAware
07:46PM 45.8830 -83.9750 43° Northeast 533 613 33,000  Level FlightAware
07:47PM 45.9650 -83.8650 43° Northeast 534 615 33,000  Level FlightAware
07:48PM 46.0380 -83.7680 43° Northeast 534 615 33,000  Level FlightAware
07:48PM 46.1180 -83.6600 43° Northeast 534 615 33,000  Level FlightAware
07:49PM 46.1890 -83.5640 43° Northeast 532 612 33,000  Level FlightAware
07:50PM 46.2610 -83.4650 44° Northeast 531 611 33,000  Level FlightAware
07:51PM 46.3430 -83.3530 43° Northeast 529 609 33,000  Level FlightAware
07:51PM 46.4130 -83.2570 43° Northeast 527 606 33,000  Level FlightAware
07:52PM 46.4840 -83.1600 43° Northeast 525 604 33,000  Level FlightAware
07:53PM 46.5610 -83.0520 44° Northeast 522 601 33,000  Level FlightAware
07:53PM 46.6300 -82.9570 43° Northeast 519 597 33,000  Level FlightAware
07:54PM 46.6990 -82.8610 44° Northeast 516 594 33,000  Level FlightAware
07:55PM 46.7780 -82.7510 44° Northeast 514 592 33,000  Level FlightAware
07:55PM 46.8380 -82.6690 43° Northeast 513 590 33,000  Level FlightAware
07:56PM 46.9000 -82.5790 45° Northeast 512 589 33,000  Level FlightAware
07:57PM 46.9720 -82.4770 44° Northeast 512 589 33,000  Level FlightAware
07:57PM 47.0300 -82.3950 44° Northeast 512 589 33,000  Level FlightAware
07:58PM 47.0880 -82.3120 44° Northeast 512 589 33,000  Level FlightAware
07:59PM 47.1460 -82.2300 44° Northeast 512 589 33,000  Level FlightAware
08:00PM 47.2190 -82.1270 44° Northeast 512 589 33,000  Level FlightAware
08:00PM 47.2770 -82.0450 44° Northeast 512 589 33,000  Level FlightAware
08:01PM 47.3340 -81.9620 45° Northeast 512 589 33,000  Level FlightAware
08:02PM 47.3920 -81.8800 44° Northeast 512 589 33,000  Level FlightAware
08:02PM 47.4500 -81.7970 44° Northeast 512 589 33,000  Level FlightAware
08:03PM 47.5230 -81.6940 44° Northeast 512 589 33,000  Level FlightAware
08:04PM 47.5810 -81.6110 44° Northeast 512 589 33,000  Level FlightAware
08:04PM 47.6390 -81.5280 44° Northeast 512 589 33,000  Level FlightAware
08:05PM 47.6970 -81.4450 44° Northeast 512 589 33,000  Level FlightAware
08:06PM 47.9000 -81.1333 44° Northeast 530 610 33,000  Level Montreal Center
08:07PM 48.0167 -80.9667 44° Northeast 530 610 33,000  Level Montreal Center
08:08PM 48.1000 -80.8167 50° Northeast 520 598 33,000  Level Montreal Center
08:09PM 48.2167 -80.6500 44° Northeast 520 598 33,000  Level Montreal Center
08:10PM 48.3000 -80.5167 47° Northeast 510 587 33,000  Level Montreal Center
08:11PM 48.4167 -80.3167 49° Northeast 520 598 33,000  Level Montreal Center
08:12PM 48.5000 -80.1833 47° Northeast 520 598 33,000  Level Montreal Center
08:13PM 48.6000 -80.0167 48° Northeast 520 598 33,000  Level Montreal Center
08:14PM 48.7000 -79.8333 50° Northeast 520 598 33,000  Level Montreal Center
08:15PM 48.7833 -79.7000 46° Northeast 520 598 33,000  Level Montreal Center
08:16PM 48.9000 -79.5167 46° Northeast 520 598 33,000  Level Montreal Center
08:17PM 48.9833 -79.3500 53° Northeast 520 598 33,000  Level Montreal Center
08:18PM 49.0833 -79.1833 47° Northeast 520 598 33,000  Level Montreal Center
08:19PM 49.1833 -79.0333 44° Northeast 520 598 33,000  Level Montreal Center
08:20PM 49.2833 -78.8500 50° Northeast 520 598 33,000  Level Montreal Center
08:21PM 49.3667 -78.6833 52° Northeast 510 587 33,000  Level Montreal Center
08:22PM 49.4833 -78.5000 46° Northeast 530 610 33,000  Level Montreal Center
08:23PM 49.5667 -78.3500 49° Northeast 520 598 33,000  Level Montreal Center
08:24PM 49.6500 -78.1667 55° Northeast 520 598 33,000  Level Montreal Center
08:25PM 49.7500 -78.0000 47° Northeast 520 598 33,000  Level Montreal Center
08:26PM 49.8500 -77.8500 44° Northeast 510 587 33,000  Level Montreal Center
08:27PM 49.9500 -77.6667 50° Northeast 510 587 33,000  Level Montreal Center
08:28PM 50.0333 -77.5167 49° Northeast 510 587 33,000  Level Montreal Center
08:29PM 50.1167 -77.3333 55° Northeast 510 587 33,000  Level Montreal Center
08:30PM 50.2167 -77.1500 50° Northeast 510 587 33,000  Level Montreal Center
08:31PM 50.3000 -77.0000 49° Northeast 510 587 33,000  Level Montreal Center
08:32PM 50.4000 -76.8167 49° Northeast 520 598 33,000  Level Montreal Center
08:33PM 50.5000 -76.6333 49° Northeast 510 587 33,000  Level Montreal Center
08:34PM 50.5833 -76.4667 52° Northeast 520 598 33,000  Level Montreal Center
08:35PM 50.6833 -76.2833 49° Northeast 520 598 33,000  Level Montreal Center
08:36PM 50.7667 -76.1000 54° Northeast 520 598 33,000  Level Montreal Center
08:37PM 50.8667 -75.9333 46° Northeast 520 598 33,000  Level Montreal Center
08:38PM 50.9500 -75.7500 54° Northeast 510 587 33,000  Level Montreal Center
08:39PM 51.0500 -75.5667 49° Northeast 520 598 33,000  Level Montreal Center
08:40PM 51.1333 -75.3667 56° Northeast 520 598 33,000  Level Montreal Center
08:41PM 51.2167 -75.2167 48° Northeast 520 598 33,000  Level Montreal Center
08:42PM 51.3167 -75.0167 51° Northeast 520 598 33,000  Level Montreal Center
08:43PM 51.4000 -74.8333 54° Northeast 520 598 33,000  Level Montreal Center
08:44PM 51.5000 -74.6667 46° Northeast 510 587 33,000  Level Montreal Center
08:45PM 51.5833 -74.4667 56° Northeast 510 587 33,000  Level Montreal Center
08:46PM 51.6667 -74.3167 48° Northeast 510 587 33,000  Level Montreal Center
08:47PM 51.7667 -74.1167 51° Northeast 510 587 33,000  Level Montreal Center
08:48PM 51.8333 -73.9500 57° Northeast 510 587 33,000  Level Montreal Center
08:49PM 51.9333 -73.7500 51° Northeast 500 575 33,000  Level Montreal Center
08:50PM 52.0167 -73.5500 56° Northeast 510 587 33,000  Level Montreal Center
08:51PM 52.1000 -73.3833 51° Northeast 510 587 33,000  Level Montreal Center
08:52PM 52.1833 -73.1833 56° Northeast 510 587 33,000  Level Montreal Center
08:53PM 52.2833 -73.0167 46° Northeast 510 587 33,000  Level Montreal Center
08:54PM 52.3500 -72.8167 61° Northeast 510 587 33,000  Level Montreal Center
08:55PM 52.4333 -72.6500 51° Northeast 500 575 33,000  Level Montreal Center
08:56PM 52.5333 -72.4500 51° Northeast 500 575 33,000  Level Montreal Center
08:57PM 52.6167 -72.2833 50° Northeast 480 552 33,000  Level Montreal Center
08:58PM 52.6833 -72.1000 59° Northeast 490 564 33,000  Level Montreal Center
08:59PM 52.7667 -71.9000 55° Northeast 490 564 33,000  Level Montreal Center
09:00PM 52.8500 -71.7333 50° Northeast 490 564 33,000  Level Montreal Center
09:01PM 52.9167 -71.5167 63° Northeast 500 575 33,000  Level Montreal Center
09:02PM 53.0000 -71.3500 50° Northeast 500 575 33,000  Level Montreal Center
09:03PM 53.0833 -71.1667 53° Northeast 500 575 33,000  Level Montreal Center
09:04PM 53.1667 -70.9667 55° Northeast 510 587 33,000  Level Montreal Center
09:05PM 53.2500 -70.7500 57° Northeast 510 587 33,000  Level Montreal Center
09:06PM 53.3333 -70.5667 53° Northeast 510 587 33,000  Level Montreal Center
09:07PM 53.4167 -70.3667 55° Northeast 510 587 33,000  Level Montreal Center
09:08PM 53.5000 -70.1500 57° Northeast 510 587 33,000  Level Montreal Center
09:09PM 53.6000 -69.9500 50° Northeast 500 575 33,000  Level Gander Center
09:10PM 53.6667 -69.7667 58° Northeast 500 575 33,000  Level Gander Center
09:11PM 53.7333 -69.5833 58° Northeast 500 575 33,000  Level Montreal Center
09:12PM 53.8167 -69.4000 52° Northeast 500 575 33,000  Level Montreal Center
09:13PM 53.8833 -69.2167 58° Northeast 500 575 33,000  Level Montreal Center
09:14PM 53.9667 -69.0000 57° Northeast 500 575 33,000  Level Montreal Center
09:15PM 54.0333 -68.8167 58° Northeast 500 575 33,000  Level Montreal Center
09:16PM 54.1333 -68.6333 47° Northeast 500 575 33,000  Level Montreal Center
09:16PM 54.1500 -68.6000 50° Northeast 510 587 33,000  Level Gander Center
09:17PM 54.2000 -68.4167 65° Northeast 500 575 33,000  Level Montreal Center
09:18PM 54.2833 -68.2000 57° Northeast 500 575 33,000  Level Montreal Center
09:19PM 54.3500 -68.0000 60° Northeast 500 575 33,000  Level Montreal Center
09:20PM 54.4333 -67.7833 56° Northeast 500 575 33,000  Level Montreal Center
09:21PM 54.5167 -67.6000 52° Northeast 500 575 33,000  Level Montreal Center
09:22PM 54.5833 -67.4000 60° Northeast 500 575 33,000  Level Montreal Center
09:23PM 54.6500 -67.1833 62° Northeast 500 575 33,000  Level Montreal Center
09:24PM 54.7500 -66.9833 49° Northeast 490 564 33,000  Level Montreal Center
09:24PM 54.7500 -66.9667 90° East 510 587 33,000  Level Gander Center
09:25PM 54.8167 -66.8000 55° Northeast 510 587 33,000  Level Montreal Center
09:26PM 54.8833 -66.5833 62° Northeast 500 575 33,000  Level Montreal Center
09:26PM 54.9000 -66.5667 30° Northeast 510 587 33,000  Level Gander Center
09:27PM 54.9833 -66.3500 56° Northeast 500 575 33,000  Level Gander Center
09:28PM 55.0333 -66.1500 66° East 530 610 33,000  Level Montreal Center
09:29PM 55.1000 -65.9667 58° Northeast 490 564 33,000  Level Montreal Center
09:29PM 55.1333 -65.9333 30° Northeast 500 575 33,000  Level Gander Center
09:30PM 55.1667 -65.7667 71° East 500 575 33,000  Level Montreal Center
09:31PM 55.2500 -65.5333 58° Northeast 500 575 33,000  Level Montreal Center
09:31PM 55.2833 -65.5333 360° North 500 575 33,000  Level Gander Center
09:32PM 55.3167 -65.3333 74° East 500 575 33,000  Level Montreal Center
09:33PM 55.3833 -65.1167 61° Northeast 500 575 33,000  Level Montreal Center
09:33PM 55.4167 -65.1000 16° North 500 575 33,000  Level Gander Center
09:34PM 55.4833 -64.9167 57° Northeast 500 575 33,000  Level Gander Center
09:35PM 55.5333 -64.6833 69° East 490 564 33,000  Level Montreal Center
09:36PM 55.6167 -64.4833 54° Northeast 490 564 33,000  Level Montreal Center
09:36PM 55.6333 -64.4833 360° North 500 575 33,000  Level Gander Center
09:37PM 55.7000 -64.2500 63° Northeast 500 575 33,000  Level Gander Center
09:38PM 55.7500 -64.0500 66° East 500 575 33,000  Level Montreal Center
09:39PM 55.8167 -63.8500 59° Northeast 500 575 33,000  Level Montreal Center
09:40PM 55.8833 -63.7167 48° Northeast 490 564 33,000  Level Gander Center
09:41PM 55.9500 -63.4667 64° Northeast 510 587 33,000  Level Gander Center
09:42PM 56.0167 -63.2500 61° Northeast 500 575 33,000  Level Gander Center
09:42PM 56.0500 -63.1667 54° Northeast 500 575 33,000  Level Gander Center
09:43PM 56.1000 -62.9667 66° East 500 575 33,000  Level Gander Center
09:44PM 56.2000 -62.7167 54° Northeast 500 575 33,000  Level Gander Center
09:45PM 56.2500 -62.5167 66° East 510 587 33,000  Level Gander Center
09:46PM 56.2833 -62.3500 70° East 490 564 33,000  Level Montreal Center
09:47PM 56.3667 -62.1000 59° Northeast 500 575 33,000  Level Montreal Center
09:47PM 56.3833 -62.0667 48° Northeast 510 587 33,000  Level Gander Center
09:48PM 56.4500 -61.8500 61° Northeast 510 587 33,000  Level Gander Center
09:49PM 56.5167 -61.6167 63° Northeast 510 587 33,000  Level Gander Center
09:50PM 56.5833 -61.4000 61° Northeast 510 587 33,000  Level Gander Center
09:51PM 56.6333 -61.2500 59° Northeast 520 598 33,000  Level Gander Center
09:51PM 56.6500 -61.1667 70° East 500 575 33,000  Level Gander Center
09:52PM 56.7167 -60.9167 64° Northeast 510 587 33,000  Level Gander Center
09:53PM 56.7833 -60.7000 61° Northeast 500 575 33,000  Level Gander Center
09:54PM 56.8500 -60.4500 64° Northeast 500 575 33,000  Level Gander Center
09:55PM 56.9167 -60.2500 59° Northeast 510 587 33,000  Level Gander Center
09:56PM 56.9833 -60.0000 64° Northeast 520 598 33,000  Level Gander Center
09:57PM 57.0500 -59.7500 64° Northeast 510 587 33,000  Level Gander Center
09:58PM 57.1000 -59.5333 67° East 520 598 33,000  Level Gander Center
09:59PM 57.1500 -59.2833 70° East 520 598 33,000  Level Gander Center
10:00PM 57.2167 -59.0333 64° Northeast 520 598 33,000  Level Gander Center
10:01PM 57.2500 -58.7500 78° East 540 621 33,000  Level Gander Center
10:02PM 57.2667 -58.4667 84° East 540 621 33,000  Level Gander Center
10:03PM 57.3000 -58.2000 77° East 550 633 33,000  Level Gander Center
10:04PM 57.3167 -58.0333 79° East 550 633 33,000  Level Gander Center
10:04PM 57.3333 -57.9167 75° East 550 633 33,000  Level Gander Center
10:05PM 57.3333 -57.7500 90° East 550 633 33,000  Level Gander Center
10:05PM 57.3500 -57.6333 75° East 550 633 33,000  Level Gander Center
10:06PM 57.3833 -57.3833 76° East 550 633 33,000  Level Gander Center
10:07PM 57.4000 -57.1000 84° East 550 633 33,000  Level Gander Center
10:09PM 57.4438 -56.7109 78° East  Level FlightAware Approximate
10:16PM 57.6285 -54.9232 78° East  Level FlightAware Approximate
10:17PM 57.6529 -54.6664 80° East  Level FlightAware Approximate
10:18PM 57.6767 -54.4092 80° East  Level FlightAware Approximate
10:19PM 57.6999 -54.1517 80° East  Level FlightAware Approximate
10:20PM 57.7227 -53.8939 81° East  Level FlightAware Approximate
10:21PM 57.7449 -53.6357 81° East  Level FlightAware Approximate
10:22PM 57.7666 -53.3773 81° East  Level FlightAware Approximate
10:23PM 57.7878 -53.1185 81° East  Level FlightAware Approximate
10:24PM 57.8084 -52.8594 81° East  Level FlightAware Approximate
10:25PM 57.8285 -52.6001 82° East  Level FlightAware Approximate
10:26PM 57.8481 -52.3404 82° East  Level FlightAware Approximate
10:27PM 57.8672 -52.0805 82° East  Level FlightAware Approximate
10:28PM 57.8857 -51.8203 82° East  Level FlightAware Approximate
10:29PM 57.9037 -51.5598 82° East  Level FlightAware Approximate
10:30PM 57.9212 -51.2991 83° East  Level FlightAware Approximate
10:31PM 57.9381 -51.0382 83° East  Level FlightAware Approximate
10:32PM 57.9545 -50.7769 83° East  Level FlightAware Approximate
10:33PM 57.9703 -50.5155 83° East  Level FlightAware Approximate
10:34PM 57.9857 -50.2538 84° East  Level FlightAware Approximate
10:35PM 58.0003 -49.9914 86° East  Level FlightAware Approximate
10:36PM 58.0104 -49.7286 86° East  Level FlightAware Approximate
10:37PM 58.0199 -49.4657 86° East  Level FlightAware Approximate
10:38PM 58.0288 -49.2026 86° East  Level FlightAware Approximate
10:39PM 58.0373 -48.9394 86° East  Level FlightAware Approximate
10:40PM 58.0451 -48.6761 87° East  Level FlightAware Approximate
10:41PM 58.0524 -48.4127 87° East  Level FlightAware Approximate
10:42PM 58.0592 -48.1492 87° East  Level FlightAware Approximate
10:43PM 58.0655 -47.8855 87° East  Level FlightAware Approximate
10:44PM 58.0712 -47.6218 88° East  Level FlightAware Approximate
10:45PM 58.0763 -47.3580 88° East  Level FlightAware Approximate
10:46PM 58.0809 -47.0942 88° East  Level FlightAware Approximate
10:47PM 58.0850 -46.8302 88° East  Level FlightAware Approximate
10:48PM 58.0885 -46.5663 88° East  Level FlightAware Approximate
10:49PM 58.0914 -46.3022 89° East  Level FlightAware Approximate
10:50PM 58.0939 -46.0382 89° East  Level FlightAware Approximate
10:51PM 58.0957 -45.7741 89° East  Level FlightAware Approximate
10:52PM 58.0971 -45.5099 89° East  Level FlightAware Approximate
10:53PM 58.0979 -45.2458 90° East  Level FlightAware Approximate
10:54PM 58.0981 -44.9817 90° East  Level FlightAware Approximate
10:55PM 58.0978 -44.7175 90° East  Level FlightAware Approximate
10:56PM 58.0969 -44.4534 90° East  Level FlightAware Approximate
10:57PM 58.0955 -44.1893 90° East  Level FlightAware Approximate
10:58PM 58.0936 -43.9252 91° East  Level FlightAware Approximate
10:59PM 58.0911 -43.6611 91° East  Level FlightAware Approximate
11:00PM 58.0880 -43.3971 91° East  Level FlightAware Approximate
11:01PM 58.0844 -43.1331 91° East  Level FlightAware Approximate
11:02PM 58.0803 -42.8692 92° East  Level FlightAware Approximate
11:03PM 58.0756 -42.6053 92° East  Level FlightAware Approximate
11:04PM 58.0704 -42.3415 92° East  Level FlightAware Approximate
11:05PM 58.0646 -42.0779 92° East  Level FlightAware Approximate
11:06PM 58.0583 -41.8142 92° East  Level FlightAware Approximate
11:07PM 58.0515 -41.5507 93° East  Level FlightAware Approximate
11:08PM 58.0441 -41.2873 93° East  Level FlightAware Approximate
11:09PM 58.0361 -41.0240 93° East  Level FlightAware Approximate
11:10PM 58.0276 -40.7609 93° East  Level FlightAware Approximate
11:11PM 58.0186 -40.4978 94° East  Level FlightAware Approximate
11:12PM 58.0090 -40.2349 94° East  Level FlightAware Approximate
11:13PM 58.0010 -39.9721 86° East  Level FlightAware Approximate
11:14PM 58.0097 -39.7092 86° East  Level FlightAware Approximate
11:15PM 58.0179 -39.4461 87° East  Level FlightAware Approximate
11:16PM 58.0256 -39.1829 87° East  Level FlightAware Approximate
11:17PM 58.0327 -38.9196 87° East  Level FlightAware Approximate
11:18PM 58.0393 -38.6562 87° East  Level FlightAware Approximate
11:19PM 58.0453 -38.3927 87° East  Level FlightAware Approximate
11:20PM 58.0508 -38.1292 88° East  Level FlightAware Approximate
11:21PM 58.0558 -37.8655 88° East  Level FlightAware Approximate
11:22PM 58.0602 -37.6018 88° East  Level FlightAware Approximate
11:23PM 58.0640 -37.3380 88° East  Level FlightAware Approximate
11:24PM 58.0677 -37.0742 88° East  Level FlightAware Approximate
11:25PM 58.0723 -36.8104 88° East  Level FlightAware Approximate
11:26PM 58.0762 -36.5465 88° East  Level FlightAware Approximate
11:27PM 58.0797 -36.2826 88° East  Level FlightAware Approximate
11:28PM 58.0826 -36.0186 89° East  Level FlightAware Approximate
11:29PM 58.0849 -35.7546 89° East  Level FlightAware Approximate
11:30PM 58.0867 -35.4906 89° East  Level FlightAware Approximate
11:31PM 58.0879 -35.2265 89° East  Level FlightAware Approximate
11:32PM 58.0886 -34.9625 90° East  Level FlightAware Approximate
11:33PM 58.0888 -34.6984 90° East  Level FlightAware Approximate
11:34PM 58.0884 -34.4343 90° East  Level FlightAware Approximate
11:35PM 58.0874 -34.1702 90° East  Level FlightAware Approximate
11:36PM 58.0859 -33.9062 90° East  Level FlightAware Approximate
11:37PM 58.0839 -33.6422 91° East  Level FlightAware Approximate
11:38PM 58.0813 -33.3782 91° East  Level FlightAware Approximate
11:39PM 58.0782 -33.1142 91° East  Level FlightAware Approximate
11:40PM 58.0746 -32.8503 91° East  Level FlightAware Approximate
11:41PM 58.0703 -32.5865 92° East  Level FlightAware Approximate
11:42PM 58.0656 -32.3227 92° East  Level FlightAware Approximate
11:43PM 58.0603 -32.0590 92° East  Level FlightAware Approximate
11:44PM 58.0544 -31.7954 92° East  Level FlightAware Approximate
11:45PM 58.0480 -31.5319 93° East  Level FlightAware Approximate
11:46PM 58.0411 -31.2684 93° East  Level FlightAware Approximate
11:47PM 58.0336 -31.0051 93° East  Level FlightAware Approximate
11:48PM 58.0256 -30.7419 93° East  Level FlightAware Approximate
11:49PM 58.0170 -30.4788 93° East  Level FlightAware Approximate
11:50PM 58.0079 -30.2159 94° East  Level FlightAware Approximate
11:51PM 58.0018 -29.9531 86° East  Level FlightAware Approximate
11:52PM 58.0118 -29.6903 86° East  Level FlightAware Approximate
11:53PM 58.0212 -29.4273 86° East  Level FlightAware Approximate
11:54PM 58.0301 -29.1643 86° East  Level FlightAware Approximate
11:55PM 58.0384 -28.9011 86° East  Level FlightAware Approximate
11:56PM 58.0462 -28.6377 87° East  Level FlightAware Approximate
11:57PM 58.0535 -28.3743 87° East  Level FlightAware Approximate
11:58PM 58.0602 -28.1107 87° East  Level FlightAware Approximate
11:59PM 58.0663 -27.8471 87° East  Level FlightAware Approximate
12:00AM 58.0719 -27.5834 88° East  Level FlightAware Approximate
12:01AM 58.0770 -27.3196 88° East  Level FlightAware Approximate
12:02AM 58.0815 -27.0557 88° East  Level FlightAware Approximate
12:03AM 58.0855 -26.7918 88° East  Level FlightAware Approximate
12:04AM 58.0889 -26.5278 88° East  Level FlightAware Approximate
12:05AM 58.0918 -26.2638 89° East  Level FlightAware Approximate
12:06AM 58.0942 -25.9997 89° East  Level FlightAware Approximate
12:07AM 58.0960 -25.7356 89° East  Level FlightAware Approximate
12:08AM 58.0972 -25.4715 89° East  Level FlightAware Approximate
12:09AM 58.0979 -25.2073 90° East  Level FlightAware Approximate
12:10AM 58.0981 -24.9432 90° East  Level FlightAware Approximate
12:11AM 58.0977 -24.6790 90° East  Level FlightAware Approximate
12:12AM 58.0967 -24.4149 90° East  Level FlightAware Approximate
12:13AM 58.0953 -24.1508 90° East  Level FlightAware Approximate
12:14AM 58.0932 -23.8867 91° East  Level FlightAware Approximate
12:15AM 58.0906 -23.6226 91° East  Level FlightAware Approximate
12:16AM 58.0875 -23.3586 91° East  Level FlightAware Approximate
12:17AM 58.0839 -23.0946 91° East  Level FlightAware Approximate
12:18AM 58.0797 -22.8307 92° East  Level FlightAware Approximate
12:19AM 58.0749 -22.5669 92° East  Level FlightAware Approximate
12:20AM 58.0696 -22.3031 92° East  Level FlightAware Approximate
12:21AM 58.0637 -22.0394 92° East  Level FlightAware Approximate
12:22AM 58.0574 -21.7758 93° East  Level FlightAware Approximate
12:23AM 58.0504 -21.5123 93° East  Level FlightAware Approximate
12:24AM 58.0429 -21.2489 93° East  Level FlightAware Approximate
12:25AM 58.0349 -20.9857 93° East  Level FlightAware Approximate
12:26AM 58.0263 -20.7225 93° East  Level FlightAware Approximate
12:27AM 58.0172 -20.4595 94° East  Level FlightAware Approximate
12:28AM 58.0076 -20.1966 94° East  Level FlightAware Approximate
12:29AM 57.9931 -19.9350 101° East  Level FlightAware Approximate
12:30AM 57.9655 -19.6769 101° East  Level FlightAware Approximate
12:31AM 57.9374 -19.4193 102° East  Level FlightAware Approximate
12:32AM 57.9087 -19.1620 102° East  Level FlightAware Approximate
12:33AM 57.8795 -18.9052 102° East  Level FlightAware Approximate
12:34AM 57.8498 -18.6487 102° East  Level FlightAware Approximate
12:35AM 57.8196 -18.3927 102° East  Level FlightAware Approximate
12:36AM 57.7888 -18.1372 103° East  Level FlightAware Approximate
12:37AM 57.7576 -17.8821 103° East  Level FlightAware Approximate
12:38AM 57.7258 -17.6274 103° East  Level FlightAware Approximate
12:39AM 57.6935 -17.3731 103° East  Level FlightAware Approximate
12:40AM 57.6608 -17.1194 103° East  Level FlightAware Approximate
12:41AM 57.6275 -16.8661 104° East  Level FlightAware Approximate
12:42AM 57.5937 -16.6132 104° East  Level FlightAware Approximate
12:43AM 57.5594 -16.3609 104° East  Level FlightAware Approximate
12:44AM 57.5246 -16.1090 104° East  Level FlightAware Approximate
12:45AM 57.4893 -15.8576 105° East  Level FlightAware Approximate
12:46AM 57.4535 -15.6066 105° East  Level FlightAware Approximate
12:47AM 57.4172 -15.3562 105° East  Level FlightAware Approximate
12:48AM 57.3804 -15.1063 105° East  Level FlightAware Approximate
12:49AM 57.3431 -14.8569 105° East  Level FlightAware Approximate
12:50AM 57.3053 -14.6080 106° East  Level FlightAware Approximate
12:51AM 57.2670 -14.3596 106° East  Level FlightAware Approximate
12:52AM 57.2283 -14.1117 106° East  Level FlightAware Approximate
12:53AM 57.1890 -13.8643 106° East  Level FlightAware Approximate
12:53AM 58.0310 -11.4220 106° East 562 647 33,000  Level FlightAware
12:53AM 58.0270 -11.2590 93° East 561 646 33,000  Level FlightAware
12:54AM 58.0190 -11.0080 93° East 559 643 33,000  Level FlightAware
12:55AM 58.0130 -10.8140 93° East 557 641 33,000  Level FlightAware
12:56AM 58.0050 -10.5980 94° East 556 640 33,000  Level FlightAware
12:56AM 57.9990 -10.4030 93° East 556 640 33,000  Level FlightAware
12:57AM 57.9910 -10.2070 94° East 556 640 33,000  Level FlightAware
12:58AM 57.9760 -9.9950 98° East 543 625 33,000  Level FlightAware
12:58AM 57.9440 -9.8200 109° East 508 585 33,000  Level FlightAware
12:59AM 57.9040 -9.6350 112° Southeast 500 575 33,000  Level FlightAware
01:00AM 57.8700 -9.4790 112° Southeast 500 575 33,000 600 Level FlightAware
01:00AM 57.8340 -9.3130 112° Southeast 509 586 33,800 1,080 Climbing FlightAware
01:01AM 57.7930 -9.1260 112° Southeast 521 600 34,600 180 Climbing FlightAware
01:02AM 57.7567 -8.9663 112° Southeast 456 525 34,100 1,620 Descending FlightAware UK
01:02AM 57.7550 -8.9560 112° Southeast 516 594 35,700 960 Climbing FlightAware
01:02AM 57.7354 -8.8652 112° Southeast 458 527 34,500 -1,500 Descending FlightAware UK
01:02AM 57.7186 -8.7904 113° Southeast 458 527 34,800 4,380 Climbing FlightAware UK
01:03AM 57.7130 -8.7670 113° Southeast 525 604 36,400 960 Climbing FlightAware
01:03AM 57.6960 -8.6899 113° Southeast 462 532 35,200 -1,800 Descending FlightAware UK
01:03AM 57.6791 -8.6146 113° Southeast 462 532 35,400 300 Climbing FlightAware UK
01:03AM 57.6623 -8.5385 112° Southeast 458 527 35,400  Level FlightAware UK
01:04AM 57.6451 -8.4627 113° Southeast 458 527 35,400  Level FlightAware UK
01:04AM 57.6282 -8.3889 113° Southeast 458 527 35,400 3,840 Level FlightAware UK
01:04AM 57.6280 -8.3870 113° Southeast 514 592 37,000  Climbing FlightAware
01:04AM 57.6059 -8.2910 113° Southeast 454 522 35,400 -2,760 Descending FlightAware UK
01:05AM 57.5892 -8.2186 113° Southeast 454 522 35,400 3,420 Level FlightAware UK
01:05AM 57.5850 -8.2020 113° Southeast 509 586 37,000  Climbing FlightAware
01:05AM 57.5610 -8.0969 113° Southeast 454 522 35,400 -2,580 Descending FlightAware UK
01:06AM 57.5440 -8.0242 113° Southeast 454 522 35,400 4,800 Level FlightAware UK
01:06AM 57.5480 -8.0420 113° Southeast 508 585 37,000  Climbing FlightAware
01:06AM 57.5273 -7.9515 113° Southeast 452 520 35,400 -2,880 Descending FlightAware UK
01:06AM 57.5105 -7.8794 113° Southeast 450 518 35,400 3,960 Level FlightAware UK
01:06AM 57.5100 -7.8780 113° Southeast 508 585 37,000  Climbing FlightAware
01:07AM 57.4879 -7.7834 113° Southeast 450 518 35,400 -2,700 Descending FlightAware UK
01:07AM 57.4711 -7.7115 114° Southeast 448 516 35,400 3,540 Level FlightAware UK
01:07AM 57.4670 -7.6950 114° Southeast 508 585 37,000  Climbing FlightAware
01:07AM 57.4485 -7.6157 114° Southeast 448 516 35,400 -2,940 Descending FlightAware UK
01:08AM 57.4315 -7.5436 114° Southeast 446 513 35,400 3,840 Level FlightAware UK
01:08AM 57.4290 -7.5330 114° Southeast 512 589 37,000  Climbing FlightAware
01:08AM 57.4085 -7.4475 114° Southeast 446 513 35,400 -2,760 Descending FlightAware UK
01:08AM 57.3912 -7.3750 114° Southeast 446 513 35,400 3,420 Level FlightAware UK
01:08AM 57.3860 -7.3530 114° Southeast 515 593 37,000  Climbing FlightAware
01:09AM 57.3621 -7.2538 114° Southeast 448 516 35,400 -2,580 Descending FlightAware UK
01:09AM 57.3446 -7.1808 114° Southeast 450 518 35,400 4,800 Level FlightAware UK
01:09AM 57.3470 -7.1890 114° Southeast 518 596 37,000 300 Climbing FlightAware
01:09AM 57.3271 -7.1079 114° Southeast 450 518 35,500 -2,880 Descending FlightAware UK
01:10AM 57.3093 -7.0341 114° Southeast 450 518 35,400 3,720 Descending FlightAware UK
01:10AM 57.3080 -7.0310 114° Southeast 521 600 37,000  Climbing FlightAware
01:10AM 57.2856 -6.9368 114° Southeast 452 520 35,400 -2,700 Descending FlightAware UK
01:10AM 57.2677 -6.8636 114° Southeast 456 525 35,400 3,540 Level FlightAware UK
01:10AM 57.2640 -6.8490 114° Southeast 521 600 37,000  Climbing FlightAware
01:11AM 57.2437 -6.7658 114° Southeast 456 525 35,400 -2,940 Descending FlightAware UK
01:11AM 57.2256 -6.6924 114° Southeast 456 525 35,400 3,840 Level FlightAware UK
01:11AM 57.2230 -6.6830 114° Southeast 523 602 37,000  Climbing FlightAware
01:11AM 57.2014 -6.5941 114° Southeast 460 529 35,400 -2,760 Descending FlightAware UK
01:12AM 57.1832 -6.5206 115° Southeast 460 529 35,400 3,420 Level FlightAware UK
01:12AM 57.1770 -6.4970 115° Southeast 525 604 37,000  Climbing FlightAware
01:12AM 57.1526 -6.3982 115° Southeast 464 534 35,400 -2,580 Descending FlightAware UK
01:13AM 57.1340 -6.3240 115° Southeast 462 532 35,400 4,800 Level FlightAware UK
01:13AM 57.1360 -6.3300 115° Southeast 527 606 37,000  Climbing FlightAware
01:13AM 57.1159 -6.2512 115° Southeast 462 532 35,400 -2,880 Descending FlightAware UK
01:13AM 57.0972 -6.1770 115° Southeast 460 529 35,400 3,960 Level FlightAware UK
01:13AM 57.0940 -6.1630 115° Southeast 530 610 37,000  Climbing FlightAware
01:14AM 57.0724 -6.0792 115° Southeast 462 532 35,400 -2,700 Descending FlightAware UK
01:14AM 57.0537 -6.0058 115° Southeast 462 532 35,400  Level FlightAware UK
01:14AM 57.0351 -5.9325 115° Southeast 462 532 35,400  Level FlightAware UK
01:14AM 57.0163 -5.8592 115° Southeast 464 534 35,400  Level FlightAware UK
01:15AM 56.9975 -5.7861 115° Southeast 462 532 35,400  Level FlightAware UK
01:15AM 56.9786 -5.7121 115° Southeast 462 532 35,400 3,840 Level FlightAware UK
01:15AM 56.9780 -5.7100 115° Southeast 530 610 37,000  Climbing FlightAware
01:15AM 56.9537 -5.6156 115° Southeast 460 529 35,400 -2,700 Descending FlightAware UK
01:16AM 56.9347 -5.5420 115° Southeast 458 527 35,400 4,140 Level FlightAware UK
01:16AM 56.9350 -5.5430 115° Southeast 530 610 37,000  Climbing FlightAware
01:16AM 56.9095 -5.4459 115° Southeast 458 527 35,400 -2,580 Descending FlightAware UK
01:16AM 56.8904 -5.3726 115° Southeast 458 527 35,400 3,660 Level FlightAware UK
01:17AM 56.8870 -5.3590 115° Southeast 529 609 37,000  Climbing FlightAware
01:17AM 56.8651 -5.2762 115° Southeast 458 527 35,400 -2,760 Descending FlightAware UK
01:17AM 56.8460 -5.2040 116° Southeast 456 525 35,400 4,140 Level FlightAware UK
01:17AM 56.8450 -5.1990 116° Southeast 527 606 37,000  Climbing FlightAware
01:18AM 56.8208 -5.1080 116° Southeast 456 525 35,400 -2,640 Descending FlightAware UK
01:18AM 56.8017 -5.0363 116° Southeast 454 522 35,400 4,560 Level FlightAware UK
01:18AM 56.8010 -5.0360 116° Southeast 525 604 37,000  Climbing FlightAware
01:18AM 56.7827 -4.9647 116° Southeast 452 520 35,400 -2,940 Descending FlightAware UK
01:18AM 56.7637 -4.8935 116° Southeast 452 520 35,400 3,180 Level FlightAware UK
01:19AM 56.7540 -4.8560 116° Southeast 524 603 37,000  Climbing FlightAware
01:19AM 56.7320 -4.7750 116° Southeast 452 520 35,400 -2,700 Descending FlightAware UK
01:19AM 56.7128 -4.7041 116° Southeast 450 518 35,400 4,320 Level FlightAware UK
01:19AM 56.7110 -4.6990 116° Southeast 519 597 37,000  Climbing FlightAware
01:20AM 56.6874 -4.6097 116° Southeast 448 516 35,400 -2,580 Descending FlightAware UK
01:20AM 56.6683 -4.5392 116° Southeast 446 513 35,400 4,800 Level FlightAware UK
01:20AM 56.6680 -4.5400 116° Southeast 521 600 37,000  Climbing FlightAware
01:20AM 56.6492 -4.4688 116° Southeast 444 511 35,400 -2,880 Descending FlightAware UK
01:21AM 56.6300 -4.3984 116° Southeast 442 509 35,400 3,300 Level FlightAware UK
01:21AM 56.6200 -4.3610 116° Southeast 517 595 37,000  Climbing FlightAware
01:21AM 56.5980 -4.2814 116° Southeast 444 511 35,400 -2,640 Descending FlightAware UK
01:21AM 56.5787 -4.2114 117° Southeast 444 511 35,400 4,560 Level FlightAware UK
01:21AM 56.5780 -4.2090 117° Southeast 517 595 37,000  Climbing FlightAware
01:22AM 56.5593 -4.1414 117° Southeast 444 511 35,400 -2,940 Descending FlightAware UK
01:22AM 56.5399 -4.0714 117° Southeast 444 511 35,400 3,180 Level FlightAware UK
01:22AM 56.5290 -4.0320 117° Southeast 517 595 37,000  Climbing FlightAware
01:22AM 56.5074 -3.9550 117° Southeast 442 509 35,400 -2,700 Descending FlightAware UK
01:23AM 56.4877 -3.8842 117° Southeast 442 509 35,400  Level FlightAware UK
01:23AM 56.4682 -3.8143 117° Southeast 442 509 35,400  Level FlightAware UK
01:23AM 56.4486 -3.7444 117° Southeast 442 509 35,400 3,660 Level FlightAware UK
01:23AM 56.4460 -3.7340 117° Southeast 519 597 37,000  Climbing FlightAware
01:24AM 56.4224 -3.6513 117° Southeast 442 509 35,400 -2,880 Descending FlightAware UK
01:24AM 56.4027 -3.5813 117° Southeast 444 511 35,400 3,300 Level FlightAware UK
01:24AM 56.3950 -3.5560 117° Southeast 520 598 37,000  Climbing FlightAware
01:25AM 56.3697 -3.4648 117° Southeast 446 513 35,400 -2,640 Descending FlightAware UK
01:25AM 56.3496 -3.3939 117° Southeast 446 513 35,400 4,560 Level FlightAware UK
01:25AM 56.3510 -3.3970 117° Southeast 529 609 37,000  Climbing FlightAware
01:25AM 56.3318 -3.3210 117° Southeast 448 516 35,400 -2,940 Descending FlightAware UK
01:25AM 56.3138 -3.2492 114° Southeast 450 518 35,400 3,840 Level FlightAware UK
01:26AM 56.3100 -3.2340 114° Southeast 528 608 37,000  Climbing FlightAware
01:26AM 56.2896 -3.1526 114° Southeast 450 518 35,400 -2,760 Descending FlightAware UK
01:26AM 56.2712 -3.0802 114° Southeast 452 520 35,400 3,420 Level FlightAware UK
01:26AM 56.2640 -3.0510 114° Southeast 531 611 37,000 180 Climbing FlightAware
01:27AM 56.2403 -2.9587 114° Southeast 452 520 35,500 -2,580 Descending FlightAware UK
01:27AM 56.2216 -2.8864 115° Southeast 452 520 35,400 4,500 Descending FlightAware UK
01:27AM 56.2220 -2.8900 115° Southeast 535 616 37,000  Climbing FlightAware
01:27AM 56.2027 -2.8142 115° Southeast 452 520 35,400 -2,400 Descending FlightAware UK
01:28AM 56.1775 -2.7177 115° Southeast 454 522 35,400 3,300 Level FlightAware UK
01:28AM 56.1760 -2.7140 115° Southeast 535 616 37,000  Climbing FlightAware
01:28AM 56.1519 -2.6207 115° Southeast 454 522 35,400 -2,640 Descending FlightAware UK
01:28AM 56.1327 -2.5486 115° Southeast 454 522 35,400 4,560 Level FlightAware UK
01:28AM 56.1330 -2.5500 115° Southeast 533 613 37,000  Climbing FlightAware
01:29AM 56.1135 -2.4765 115° Southeast 454 522 35,400 -2,940 Descending FlightAware UK
01:29AM 56.0944 -2.4043 115° Southeast 454 522 35,400 3,180 Level FlightAware UK
01:29AM 56.0840 -2.3660 115° Southeast 537 618 37,000  Climbing FlightAware
01:29AM 56.0621 -2.2837 115° Southeast 454 522 35,400  Descending FlightAware UK
01:30AM 56.0410 -2.2060 115° Southeast 537 618 37,000  Climbing FlightAware
01:30AM 56.0170 -2.1162 115° Southeast 454 522 35,400  Descending FlightAware UK
01:30AM 56.0040 -2.0680 116° Southeast 537 618 37,000  Climbing FlightAware
01:30AM 55.9978 -2.0454 116° Southeast 454 522 35,400 -6,420 Descending FlightAware UK
01:31AM 55.9847 -1.9968 116° Southeast 456 525 35,400  Level FlightAware UK
01:31AM 55.9654 -1.9254 116° Southeast 454 522 35,400 2,700 Level FlightAware UK
01:31AM 55.9500 -1.8700 116° Southeast 534 615 37,000  Climbing FlightAware
01:32AM 55.9266 -1.7821 116° Southeast 462 532 35,400 -2,640 Descending FlightAware UK
01:32AM 55.9089 -1.7107 114° Southeast 458 527 35,400 4,800 Level FlightAware UK
01:32AM 55.9100 -1.7130 114° Southeast 536 617 37,000  Climbing FlightAware
01:32AM 55.8918 -1.6363 114° Southeast 458 527 35,400  Descending FlightAware UK
01:33AM 55.8720 -1.5440 114° Southeast 536 617 37,000  Climbing FlightAware
01:33AM 55.8486 -1.4384 114° Southeast 452 520 35,400  Descending FlightAware UK
01:33AM 55.8380 -1.3900 111° Southeast 532 612 37,000  Climbing FlightAware
01:33AM 55.8327 -1.3649 111° Southeast 450 518 35,400  Descending FlightAware UK
01:34AM 55.8130 -1.3090 119° Southeast 509 586 37,000  Climbing FlightAware
01:34AM 55.7820 -1.2452 119° Southeast 442 509 35,400 -2,700 Descending FlightAware UK
01:34AM 55.7546 -1.1892 131° Southeast 440 506 35,400 3,540 Level FlightAware UK
01:34AM 55.7430 -1.1640 131° Southeast 504 580 37,000 240 Climbing FlightAware
01:35AM 55.7191 -1.1127 131° Southeast 438 504 35,500 -2,760 Descending FlightAware UK
01:35AM 55.6927 -1.0545 129° Southeast 442 509 35,500 3,600 Level FlightAware UK
01:35AM 55.6850 -1.0360 129° Southeast 509 586 37,000  Climbing FlightAware
01:35AM 55.6580 -0.9760 129° Southeast 442 509 35,500 -2,580 Descending FlightAware UK
01:36AM 55.6318 -0.9161 128° Southeast 446 513 35,500 3,180 Level FlightAware UK
01:36AM 55.6210 -0.8910 128° Southeast 511 588 37,000 -240 Climbing FlightAware
01:36AM 55.5891 -0.8177 128° Southeast 448 516 35,400  Descending FlightAware UK
01:36AM 55.5620 -0.7550 128° Southeast 510 587 37,000  Climbing FlightAware
01:37AM 55.5373 -0.6981 128° Southeast 440 506 35,400  Descending FlightAware UK
01:37AM 55.5120 -0.6390 128° Southeast 510 587 37,000  Climbing FlightAware
01:37AM 55.4770 -0.5591 128° Southeast 438 504 35,400 -2,520 Descending FlightAware UK
01:38AM 55.4511 -0.5000 128° Southeast 438 504 35,500 3,540 Climbing FlightAware UK
01:38AM 55.4400 -0.4760 128° Southeast 510 587 37,000  Climbing FlightAware
01:38AM 55.4155 -0.4228 128° Southeast 440 506 35,500  Descending FlightAware UK
01:38AM 55.3800 -0.3480 128° Southeast 514 592 37,000 -180 Climbing FlightAware
01:39AM 55.3518 -0.2886 128° Southeast 444 511 35,400  Descending FlightAware UK
01:39AM 55.3230 -0.2270 128° Southeast 517 595 37,000  Climbing FlightAware
01:40AM 55.2602 -0.0943 128° Southeast 454 522 35,400  Descending FlightAware UK
01:40AM 55.2520 -0.0780 128° Southeast 522 601 37,000  Climbing FlightAware
01:40AM 55.2233 -0.0161 128° Southeast 454 522 35,400 -2,760 Descending FlightAware UK
01:40AM 55.1954 0.0432 130° Southeast 454 522 35,400 3,960 Level FlightAware UK
01:41AM 55.1920 0.0510 130° Southeast 522 601 37,000  Climbing FlightAware
01:41AM 55.1492 0.1407 130° Southeast 458 527 35,400  Descending FlightAware UK
01:41AM 55.1210 0.2000 130° Southeast 524 603 37,000 1,560 Climbing FlightAware
01:42AM 55.0600 0.3270 130° Southeast 526 605 37,000 -1,320 Level FlightAware
01:43AM 55.0000 0.4525 130° Southeast 462 532 35,400  Descending FlightAware UK
01:43AM 54.9910 0.4720 130° Southeast 525 604 37,000  Climbing FlightAware
01:43AM 54.9631 0.5297 130° Southeast 458 527 35,400  Descending FlightAware UK
01:43AM 54.9350 0.5880 130° Southeast 523 602 37,000  Climbing FlightAware
01:44AM 54.9068 0.6460 130° Southeast 458 527 35,400 -2,880 Descending FlightAware UK
01:44AM 54.8788 0.7034 130° Southeast 456 525 35,400 3,300 Level FlightAware UK
01:44AM 54.8660 0.7300 130° Southeast 520 598 37,000  Climbing FlightAware
01:44AM 54.8229 0.8175 130° Southeast 454 522 35,400 -1,980 Descending FlightAware UK
01:45AM 54.7855 0.8938 130° Southeast 454 522 35,400 2,700 Level FlightAware UK
01:45AM 54.7780 0.9100 130° Southeast 517 595 37,000  Climbing FlightAware
01:45AM 54.7412 0.9909 130° Southeast 450 518 35,400  Descending FlightAware UK
01:46AM 54.7140 1.0540 130° Southeast 516 594 37,000  Climbing FlightAware
01:46AM 54.6897 1.1082 130° Southeast 444 511 35,400 -2,940 Descending FlightAware UK
01:46AM 54.6637 1.1670 127° Southeast 438 504 35,400 3,840 Level FlightAware UK
01:46AM 54.6570 1.1820 127° Southeast 508 585 37,000  Climbing FlightAware
01:47AM 54.6291 1.2444 127° Southeast 436 502 35,400 -2,760 Descending FlightAware UK
01:47AM 54.6033 1.3019 128° Southeast 438 504 35,400 3,420 Level FlightAware UK
01:47AM 54.5920 1.3250 128° Southeast 506 582 37,000  Climbing FlightAware
01:47AM 54.5598 1.3975 128° Southeast 436 502 35,400  Descending FlightAware UK
01:48AM 54.5360 1.4480 128° Southeast 504 580 37,000  Climbing FlightAware
01:48AM 54.5080 1.5109 128° Southeast 434 499 35,400  Descending FlightAware UK
01:48AM 54.4780 1.5750 128° Southeast 505 581 37,000  Climbing FlightAware
01:49AM 54.4383 1.6615 128° Southeast 436 502 35,400  Descending FlightAware UK
01:49AM 54.4240 1.6910 129° Southeast 499 574 37,000  Climbing FlightAware
01:49AM 54.4125 1.7172 129° Southeast 436 502 35,400 -4,620 Descending FlightAware UK
01:49AM 54.3862 1.7740 129° Southeast 436 502 35,400  Level FlightAware UK
01:50AM 54.3604 1.8295 129° Southeast 436 502 35,400 3,960 Level FlightAware UK
01:50AM 54.3600 1.8290 129° Southeast 498 573 37,000  Climbing FlightAware
01:50AM 54.3255 1.9048 129° Southeast 436 502 35,400 -2,700 Descending FlightAware UK
01:50AM 54.2995 1.9606 129° Southeast 434 499 35,400 3,540 Level FlightAware UK
01:51AM 54.2950 1.9700 129° Southeast 497 572 37,000  Climbing FlightAware
01:51AM 54.2557 2.0539 129° Southeast 434 499 35,400  Descending FlightAware UK
01:51AM 54.2370 2.0940 129° Southeast 495 570 37,000  Climbing FlightAware
01:52AM 54.1950 2.1830 129° Southeast 434 499 35,400  Descending FlightAware UK
01:52AM 54.1770 2.2200 129° Southeast 497 572 37,000  Climbing FlightAware
01:52AM 54.1254 2.3307 129° Southeast 436 502 35,400  Descending FlightAware UK
01:53AM 54.1130 2.3560 129° Southeast 497 572 37,000  Climbing FlightAware
01:53AM 54.0817 2.4228 129° Southeast 436 502 35,400 -2,880 Descending FlightAware UK
01:53AM 54.0554 2.4779 129° Southeast 436 502 35,400 3,960 Level FlightAware UK
01:53AM 54.0550 2.4770 129° Southeast 499 574 37,000  Climbing FlightAware
01:54AM 54.0202 2.5515 129° Southeast 438 504 35,400  Descending FlightAware UK
01:54AM 53.9880 2.6190 129° Southeast 505 581 37,000  Climbing FlightAware
01:54AM 53.9578 2.6814 129° Southeast 438 504 35,400 -2,940 Descending FlightAware UK
01:55AM 53.9316 2.7360 129° Southeast 438 504 35,400 3,840 Level FlightAware UK
01:55AM 53.9290 2.7410 129° Southeast 504 580 37,000  Climbing FlightAware
01:55AM 53.8875 2.8279 129° Southeast 438 504 35,400  Descending FlightAware UK
01:56AM 53.8620 2.8790 129° Southeast 505 581 37,000  Climbing FlightAware
01:56AM 53.8249 2.9567 129° Southeast 440 506 35,400  Descending FlightAware UK
01:56AM 53.8050 2.9980 129° Southeast 504 580 37,000  Climbing FlightAware
01:56AM 53.7712 3.0666 129° Southeast 438 504 35,400 -2,880 Descending FlightAware UK
01:57AM 53.7445 3.1212 130° Southeast 438 504 35,400 2,820 Level FlightAware UK
01:57AM 53.7330 3.1450 130° Southeast 504 580 37,000  Climbing FlightAware
01:58AM 53.6645 3.2844 130° Southeast 442 509 35,400  Descending FlightAware UK
01:58AM 53.6550 3.3040 130° Southeast 504 580 37,000  Climbing FlightAware
01:58AM 53.6019 3.4107 130° Southeast 442 509 35,400  Descending FlightAware UK
01:59AM 53.5950 3.4240 130° Southeast 505 581 37,000  Climbing FlightAware
01:59AM 53.5659 3.4835 130° Southeast 444 511 35,400  Descending FlightAware UK
01:59AM 53.5310 3.5530 130° Southeast 505 581 37,000  Climbing FlightAware
02:00AM 53.4762 3.6639 130° Southeast 444 511 35,400  Descending FlightAware UK
02:00AM 53.4650 3.6860 130° Southeast 506 582 37,000  Climbing FlightAware
02:00AM 53.4308 3.7543 130° Southeast 444 511 35,400  Descending FlightAware UK
02:01AM 53.4040 3.8070 130° Southeast 504 580 37,000 1,440 Climbing FlightAware
02:01AM 53.3370 3.9400 130° Southeast 503 579 37,000 -1,380 Level FlightAware
02:02AM 53.2956 4.0216 130° Southeast 440 506 35,400  Descending FlightAware UK
02:02AM 53.2780 4.0560 130° Southeast 501 577 37,000  Climbing FlightAware
02:02AM 53.2323 4.1452 130° Southeast 438 504 35,400  Descending FlightAware UK
02:03AM 53.2170 4.1760 130° Southeast 500 575 37,000  Climbing FlightAware
02:03AM 53.1600 4.2854 130° Southeast 436 502 35,400  Descending FlightAware UK
02:03AM 53.1480 4.3110 130° Southeast 498 573 37,000 1,920 Climbing FlightAware
02:04AM 53.0900 4.4250 130° Southeast 497 572 37,000 -1,320 Level FlightAware
02:05AM 53.0354 4.5286 130° Southeast 436 502 35,400  Descending FlightAware UK
02:05AM 53.0290 4.5410 130° Southeast 497 572 37,000  Climbing FlightAware
02:05AM 52.9820 4.6322 130° Southeast 434 499 35,400  Descending FlightAware UK
02:06AM 52.9630 4.6680 130° Southeast 495 570 37,000  Climbing FlightAware
02:06AM 52.9279 4.7358 130° Southeast 436 502 35,400 -2,520 Descending FlightAware UK
02:06AM 52.9009 4.7872 131° Southeast 436 502 35,400 5,040 Level FlightAware UK
02:06AM 52.9040 4.7820 131° Southeast 495 570 37,000  Climbing FlightAware
02:06AM 52.8740 4.8386 131° Southeast 438 504 35,400  Descending FlightAware UK
02:07AM 52.8380 4.9070 131° Southeast 495 570 37,000  Climbing FlightAware
02:07AM 52.7939 4.9929 131° Southeast 438 504 35,400  Descending FlightAware UK
02:08AM 52.7770 5.0230 131° Southeast 494 568 37,000 1,740 Climbing FlightAware
02:08AM 52.7150 5.1390 131° Southeast 493 567 37,000  Level FlightAware
02:09AM 52.6490 5.2640 131° Southeast 493 567 37,000 -1,260 Level FlightAware
02:10AM 52.5948 5.3655 131° Southeast 434 499 35,400  Descending FlightAware UK
02:10AM 52.5920 5.3720 131° Southeast 492 566 37,000 2,040 Climbing FlightAware
02:10AM 52.5310 5.4850 132° Southeast 492 566 37,000 -1,380 Level FlightAware
02:11AM 52.4781 5.5834 132° Southeast 436 502 35,400  Descending FlightAware UK
02:11AM 52.4610 5.6140 132° Southeast 492 566 37,000  Climbing FlightAware
02:11AM 52.4328 5.6666 132° Southeast 434 499 35,400  Descending FlightAware UK
02:12AM 52.4020 5.7230 132° Southeast 491 565 37,000  Climbing FlightAware
02:12AM 52.3682 5.7831 132° Southeast 434 499 35,400 -2,700 Descending FlightAware UK
02:12AM 52.3408 5.8329 132° Southeast 434 499 35,400 3,540 Level FlightAware UK
02:13AM 52.3370 5.8420 132° Southeast 490 564 37,000 1,920 Climbing FlightAware
02:13AM 52.2750 5.9560 132° Southeast 490 564 37,000  Level FlightAware
02:14AM 52.2040 6.0850 132° Southeast 491 565 37,000  Level FlightAware
02:15AM 52.1440 6.1940 132° Southeast 490 564 37,000  Level FlightAware
02:15AM 52.0860 6.2980 132° Southeast 490 564 37,000  Level FlightAware
02:16AM 52.0160 6.4240 132° Southeast 491 565 37,000  Level FlightAware
02:17AM 51.9540 6.5340 132° Southeast 490 564 37,000  Level FlightAware
02:17AM 51.8960 6.6360 133° Southeast 490 564 37,000  Level FlightAware
02:18AM 51.8130 6.7400 142° Southeast 485 558 37,000  Level FlightAware
02:19AM 51.7440 6.8240 143° Southeast 485 558 37,000  Level FlightAware
02:20AM 51.6590 6.9320 142° Southeast 485 558 37,000  Level FlightAware
02:20AM 51.5930 7.0180 141° Southeast 487 560 37,000  Level FlightAware
02:21AM 51.5220 7.1050 143° Southeast 485 558 37,000  Level FlightAware
02:22AM 51.4390 7.2040 143° Southeast 485 558 37,000  Level FlightAware
02:22AM 51.3670 7.2900 143° Southeast 486 559 37,000  Level FlightAware
02:23AM 51.2910 7.3810 143° Southeast 487 560 37,000  Level FlightAware
02:24AM 51.2190 7.4670 143° Southeast 489 563 37,000 -420 Level FlightAware
02:24AM 51.1400 7.5600 144° Southeast 485 558 36,500 -1,020 Descending FlightAware
02:25AM 51.0720 7.6400 144° Southeast 484 557 35,700 -1,080 Descending FlightAware
02:26AM 50.9910 7.7360 143° Southeast 483 556 35,000 -420 Descending FlightAware
02:27AM 50.8630 7.8840 144° Southeast 479 551 35,000  Level FlightAware
02:28AM 50.7370 8.0290 144° Southeast 480 552 35,000  Level FlightAware
02:29AM 50.6540 8.1260 143° Southeast 482 555 35,000  Level FlightAware
02:30AM 50.5820 8.2080 144° Southeast 484 557 35,000  Level FlightAware
02:30AM 50.4820 8.3220 144° Southeast 484 557 35,000  Level FlightAware
02:32AM 50.3510 8.4700 144° Southeast 483 556 35,000  Level FlightAware
02:32AM 50.2790 8.5510 144° Southeast 482 555 35,000  Level FlightAware
02:33AM 50.1970 8.6440 144° Southeast 479 551 35,000  Level FlightAware
02:34AM 50.1240 8.7250 145° Southeast 476 548 35,000  Level FlightAware
02:34AM 50.0530 8.8080 143° Southeast 480 552 35,000  Level FlightAware
02:35AM 49.9540 8.9450 138° Southeast 477 549 35,000  Level FlightAware
02:37AM 49.8440 9.1010 138° Southeast 474 545 35,000 -480 Level FlightAware
02:38AM 49.7290 9.2610 138° Southeast 475 547 34,000 -1,020 Descending FlightAware
02:38AM 49.6770 9.3340 138° Southeast 474 545 33,300 -1,200 Descending FlightAware
02:40AM 49.5620 9.5120 135° Southeast 465 535 31,800 -1,500 Descending FlightAware
02:40AM 49.4970 9.6270 131° Southeast 471 542 30,400 -1,920 Descending FlightAware
02:41AM 49.4400 9.7260 132° Southeast 466 536 29,100 -1,800 Descending FlightAware
02:42AM 49.3850 9.8220 131° Southeast 443 510 28,000 -1,740 Descending FlightAware
02:42AM 49.3420 9.8960 132° Southeast 442 509 26,800 -1,620 Descending FlightAware
02:44AM 49.2310 10.0880 131° Southeast 439 505 25,000 -840 Descending FlightAware
02:44AM 49.1780 10.1780 132° Southeast 427 491 25,000  Level FlightAware
02:45AM 49.1090 10.2940 132° Southeast 426 490 25,000  Level FlightAware
02:46AM 49.0660 10.3620 134° Southeast 423 487 25,000 -1,200 Level FlightAware
02:47AM 48.9920 10.4790 134° Southeast 421 484 23,300 -2,160 Descending FlightAware
02:47AM 48.9440 10.5570 133° Southeast 408 470 22,000 -2,040 Descending FlightAware
02:48AM 48.8940 10.6360 134° Southeast 385 443 20,600 -1,980 Descending FlightAware
02:49AM 48.8430 10.7180 133° Southeast 373 429 19,200 -1,980 Descending FlightAware
02:49AM 48.7890 10.7980 136° Southeast 370 426 17,700 -2,100 Descending FlightAware
02:50AM 48.7400 10.8670 137° Southeast 361 415 16,400 -1,980 Descending FlightAware
02:51AM 48.6890 10.9400 137° Southeast 350 403 15,100 -1,800 Descending FlightAware
02:51AM 48.6380 11.0120 137° Southeast 344 396 13,700 -1,920 Descending FlightAware
02:52AM 48.5910 11.0810 136° Southeast 338 389 12,400 -1,980 Descending FlightAware
02:53AM 48.5690 11.1490 116° Southeast 333 383 11,400 -1,200 Descending FlightAware
02:53AM 48.5580 11.2370 101° East 331 381 11,000 -720 Descending FlightAware
02:54AM 48.5480 11.3310 99° East 322 371 10,400 -900 Descending FlightAware
02:55AM 48.5400 11.4060 99° East 295 339 9,900 -1,140 Descending FlightAware
02:55AM 48.5340 11.4580 100° East 288 331 9,400 -1,020 Descending FlightAware
02:55AM 48.5270 11.5200 100° East 289 333 9,000 -420 Descending FlightAware
02:56AM 48.5200 11.5790 100° East 289 333 9,000  Level FlightAware
02:56AM 48.5150 11.6290 99° East 290 334 9,000 -240 Level FlightAware
02:57AM 48.5080 11.6880 100° East 286 329 8,800 -1,020 Descending FlightAware
02:57AM 48.5010 11.7480 100° East 287 330 8,000 -1,560 Descending FlightAware
02:58AM 48.4950 11.7980 100° East 287 330 7,400 -1,320 Descending FlightAware
02:58AM 48.4890 11.8550 99° East 283 326 6,800 -1,320 Descending FlightAware
02:59AM 48.4850 11.8940 99° East 281 323 6,300 -1,500 Descending FlightAware
02:59AM 48.4810 11.9330 99° East 278 320 5,800 -1,320 Descending FlightAware
02:59AM 48.4750 11.9890 99° East 274 315 5,200 -1,140 Descending FlightAware
03:00AM 48.4690 12.0360 101° East 264 304 4,800 -900 Descending FlightAware
03:00AM 48.4610 12.0600 117° Southeast 239 275 4,600 -840 Descending FlightAware
03:00AM 48.4470 12.0730 148° Southeast 221 254 4,400 -780 Descending FlightAware
03:01AM 48.4230 12.0810 168° South 217 250 4,100 -960 Descending FlightAware
03:01AM 48.4040 12.0850 172° South 198 228 3,700 -720 Descending FlightAware
03:02AM 48.3850 12.0650 215° Southwest 198 228 3,600 -180 Descending FlightAware
03:02AM 48.3830 12.0460 261° West 198 228 3,600  Level FlightAware
03:02AM 48.3830 12.0320 270° West 196 226 3,600 -180 Level FlightAware
03:02AM 48.3800 11.9980 262° West 179 206 3,500 -720 Descending FlightAware
03:03AM 48.3780 11.9590 266° West 164 189 2,900 -1,020 Descending FlightAware
03:03AM 48.3750 11.9320 261° West 145 167 2,600 -780 Descending FlightAware
03:04AM 48.3740 11.9170 264° West 135 155 2,400 -840 Descending FlightAware
03:04AM 48.3720 11.8890 264° West 137 158 2,000 -780 Descending FlightAware
03:05AM 48.3700 11.8650 263° West 136 157 1,700 -780 Descending FlightAware
03:05AM 48.3680 11.8380 264° West 131 151 1,300 -600 Descending FlightAware
03:06AM 48.3660 11.8100 264° West 127 146 1,100 -420 Descending FlightAware